Time;durP1;ratioP1;P1;durP2;ratioP2;P2;SDS_P1;SDS_P2;PMS_P1;PMS_P2;Temp;Humidity;BMP_temperature;BMP_pressure;BME280_temperature;BME280_humidity;BME280_pressure;Samples;Min_cycle;Max_cycle;Signal;HPM_P1;HPM_P2
2022/09/07 00:01:55;;;;;;;31.45;24.08;;;15.40;99.90;;;;;;5117671;28;20055;-57
2022/09/07 00:04:21;;;;;;;33.08;24.60;;;15.40;99.90;;;;;;5118178;28;20078;-57
2022/09/07 00:06:47;;;;;;;30.10;24.73;;;15.50;99.90;;;;;;5117944;28;20382;-57
2022/09/07 00:09:13;;;;;;;29.05;23.60;;;15.50;99.90;;;;;;5118205;27;20036;-57
2022/09/07 00:11:39;;;;;;;32.70;24.42;;;15.50;99.90;;;;;;5118295;28;20032;-57
2022/09/07 00:14:06;;;;;;;37.28;24.60;;;15.40;99.90;;;;;;5117928;28;20031;-57
2022/09/07 00:16:32;;;;;;;30.52;24.35;;;15.40;99.90;;;;;;5118006;28;20032;-57
2022/09/07 00:19:01;;;;;;;30.08;24.35;;;15.40;99.90;;;;;;5117918;28;20193;-57
2022/09/07 00:21:28;;;;;;;35.83;25.38;;;15.40;99.90;;;;;;5117821;27;20028;-57
2022/09/07 00:23:54;;;;;;;32.78;24.48;;;15.30;99.90;;;;;;5117444;28;20023;-57
2022/09/07 00:26:23;;;;;;;33.05;23.58;;;15.30;99.90;;;;;;5118008;28;20045;-57
2022/09/07 00:28:49;;;;;;;35.22;25.83;;;15.40;99.90;;;;;;5117546;28;20028;-57
2022/09/07 00:31:19;;;;;;;29.38;24.45;;;15.50;99.90;;;;;;5117772;28;20107;-57
2022/09/07 00:33:47;;;;;;;31.67;23.35;;;15.50;99.90;;;;;;5117756;28;20057;-57
2022/09/07 00:36:15;;;;;;;32.90;22.52;;;15.40;99.90;;;;;;5117526;28;20027;-57
2022/09/07 00:38:41;;;;;;;31.10;23.02;;;15.30;99.90;;;;;;5116401;28;20028;-57
2022/09/07 00:41:08;;;;;;;30.67;23.58;;;15.30;99.90;;;;;;5117309;28;20171;-57
2022/09/07 00:43:37;;;;;;;27.42;22.83;;;15.20;99.90;;;;;;5117283;28;20058;-57
2022/09/07 00:46:05;;;;;;;28.83;23.10;;;15.30;99.90;;;;;;5117254;28;20023;-57
2022/09/07 00:48:50;;;;;;;27.35;23.15;;;15.20;99.90;;;;;;5116157;28;20034;-57
2022/09/07 00:52:00;;;;;;;28.98;23.65;;;15.20;99.90;;;;;;5117120;28;20042;-57
2022/09/07 00:54:35;;;;;;;27.13;22.50;;;15.20;99.90;;;;;;5114499;28;20042;-57
2022/09/07 00:57:01;;;;;;;30.40;22.92;;;15.20;99.90;;;;;;5116950;28;20028;-57
2022/09/07 00:59:31;;;;;;;35.35;23.10;;;15.20;99.90;;;;;;5117160;28;20043;-57
2022/09/07 01:01:57;;;;;;;31.42;24.00;;;15.20;99.90;;;;;;5117028;28;20036;-57
2022/09/07 01:04:23;;;;;;;30.65;24.17;;;15.10;99.90;;;;;;5116854;28;20046;-57
2022/09/07 01:06:50;;;;;;;28.73;23.17;;;15.10;99.90;;;;;;5116913;28;20081;-57
2022/09/07 01:09:19;;;;;;;30.90;22.35;;;15.20;99.90;;;;;;5116972;28;20120;-57
2022/09/07 01:11:49;;;;;;;33.25;24.23;;;15.10;99.90;;;;;;5116761;28;20034;-57
2022/09/07 01:14:24;;;;;;;38.63;23.88;;;15.10;99.90;;;;;;5117000;28;20024;-57
2022/09/07 01:17:05;;;;;;;31.38;23.58;;;15.00;99.90;;;;;;5116556;28;20062;-57
2022/09/07 01:19:41;;;;;;;;;;;15.00;99.90;;;;;;5117295;28;20023;-57
2022/09/07 01:22:31;;;;;;;30.27;22.20;;;15.10;99.90;;;;;;5116635;28;19915;-57
2022/09/07 01:25:34;;;;;;;26.55;20.88;;;15.00;99.90;;;;;;5116622;28;20028;-57
2022/09/07 01:28:15;;;;;;;28.17;21.83;;;15.00;99.90;;;;;;5116297;28;20373;-57
2022/09/07 01:31:09;;;;;;;25.90;22.95;;;15.00;99.90;;;;;;5116842;28;20035;-57
2022/09/07 01:33:47;;;;;;;28.08;22.10;;;15.00;99.90;;;;;;5116531;28;20418;-57
2022/09/07 01:36:45;;;;;;;28.88;22.15;;;15.00;99.90;;;;;;5116599;28;20511;-57
2022/09/07 01:39:11;;;;;;;29.33;23.73;;;15.00;99.90;;;;;;5116408;28;20550;-57
2022/09/07 01:41:56;;;;;;;31.13;23.15;;;15.10;99.90;;;;;;5116362;28;20024;-57
2022/09/07 01:44:37;;;;;;;31.30;23.08;;;15.00;99.90;;;;;;5116249;28;20092;-57
2022/09/07 01:47:29;;;;;;;29.58;23.05;;;15.10;99.90;;;;;;5114681;28;20035;-57
2022/09/07 01:50:27;;;;;;;27.75;22.77;;;15.10;99.90;;;;;;5116158;28;20119;-57
2022/09/07 01:53:15;;;;;;;28.02;21.85;;;15.20;99.90;;;;;;5059349;28;20036;-57
2022/09/07 01:56:07;;;;;;;33.17;23.88;;;15.40;99.90;;;;;;5116133;28;20032;-57
2022/09/07 01:58:52;;;;;;;29.50;22.00;;;15.50;99.90;;;;;;5116101;28;20034;-57
2022/09/07 02:01:31;;;;;;;28.60;23.00;;;15.50;99.90;;;;;;5115868;28;20027;-57
2022/09/07 02:04:09;;;;;;;29.23;21.75;;;15.50;99.90;;;;;;5115718;28;20031;-57
2022/09/07 02:06:44;;;;;;;29.48;21.88;;;15.50;99.90;;;;;;5115921;28;20046;-57
2022/09/07 02:09:25;;;;;;;30.35;22.17;;;15.50;99.90;;;;;;5115744;28;20394;-57
2022/09/07 02:11:52;;;;;;;27.23;21.13;;;15.50;99.90;;;;;;5115561;28;20028;-57
2022/09/07 02:14:28;;;;;;;26.95;22.65;;;15.50;99.90;;;;;;5114500;28;20066;-57
2022/09/07 02:17:08;;;;;;;31.02;21.42;;;15.50;99.90;;;;;;5115313;28;20030;-57
2022/09/07 02:19:43;;;;;;;26.77;20.65;;;15.40;99.90;;;;;;5115620;28;20023;-57
2022/09/07 02:22:15;;;;;;;26.92;22.40;;;15.40;99.90;;;;;;5115085;28;20023;-57
2022/09/07 02:24:48;;;;;;;26.55;21.77;;;15.40;99.90;;;;;;5114120;28;20501;-57
2022/09/07 02:27:24;;;;;;;25.98;20.05;;;15.40;99.90;;;;;;5115451;28;20023;-57
2022/09/07 02:29:51;;;;;;;26.95;22.33;;;15.50;99.90;;;;;;5115231;28;20488;-57
2022/09/07 02:32:17;;;;;;;25.63;21.63;;;15.40;99.90;;;;;;5114154;28;20107;-57
2022/09/07 02:34:44;;;;;;;26.80;21.75;;;15.40;99.90;;;;;;5115266;28;20051;-57
2022/09/07 02:37:13;;;;;;;26.27;20.20;;;15.30;99.90;;;;;;5115276;28;20041;-57
2022/09/07 02:39:39;;;;;;;26.08;20.80;;;15.30;99.90;;;;;;5115283;28;20058;-57
2022/09/07 02:42:05;;;;;;;25.42;20.38;;;15.30;99.90;;;;;;5115029;28;20023;-57
2022/09/07 02:44:35;;;;;;;30.08;20.27;;;15.30;99.90;;;;;;5113739;28;20032;-57
2022/09/07 02:47:07;;;;;;;25.45;20.35;;;15.20;99.90;;;;;;5115161;28;20077;-57
2022/09/07 02:49:51;;;;;;;29.00;21.33;;;15.20;99.90;;;;;;5114908;28;20047;-57
2022/09/07 02:52:36;;;;;;;24.75;20.77;;;15.20;99.90;;;;;;5115023;28;20042;-57
2022/09/07 02:55:14;;;;;;;27.48;20.73;;;15.20;99.90;;;;;;5114894;28;20055;-57
2022/09/07 02:58:24;;;;;;;27.95;19.77;;;15.00;99.90;;;;;;5115152;28;20084;-57
2022/09/07 03:01:08;;;;;;;23.95;19.73;;;15.10;99.90;;;;;;5114720;28;20115;-57
2022/09/07 03:03:49;;;;;;;20.92;18.50;;;15.10;99.90;;;;;;5114848;28;20382;-57
2022/09/07 03:06:32;;;;;;;27.05;20.20;;;15.00;99.90;;;;;;5113544;28;20023;-57
2022/09/07 03:09:04;;;;;;;26.40;18.95;;;14.90;99.90;;;;;;5114676;28;20529;-57
2022/09/07 03:11:30;;;;;;;25.10;19.98;;;14.90;99.90;;;;;;5114798;28;20032;-57
2022/09/07 03:14:18;;;;;;;25.67;19.75;;;14.80;99.90;;;;;;5114643;28;20023;-57
2022/09/07 03:16:45;;;;;;;23.30;19.48;;;14.90;99.90;;;;;;5114619;28;20039;-57
2022/09/07 03:19:11;;;;;;;25.85;21.38;;;14.90;99.90;;;;;;5114612;28;20034;-57
2022/09/07 03:21:37;;;;;;;31.58;20.48;;;14.80;99.90;;;;;;5114617;28;20422;-57
2022/09/07 03:24:03;;;;;;;34.65;20.95;;;14.80;99.90;;;;;;5114437;28;20357;-57
2022/09/07 03:26:29;;;;;;;25.95;20.52;;;14.70;99.90;;;;;;5114538;28;20031;-57
2022/09/07 03:28:55;;;;;;;27.30;21.48;;;14.70;99.90;;;;;;5114316;28;20380;-57
2022/09/07 03:31:21;;;;;;;29.17;19.73;;;14.80;99.90;;;;;;5114605;28;20473;-57
2022/09/07 03:33:47;;;;;;;29.70;21.67;;;14.70;99.90;;;;;;5114169;28;20031;-57
2022/09/07 03:36:13;;;;;;;29.65;20.88;;;14.80;99.90;;;;;;5117778;28;20377;-57
2022/09/07 03:38:39;;;;;;;25.27;20.33;;;14.70;99.90;;;;;;5118807;28;20039;-57
2022/09/07 03:41:06;;;;;;;30.58;20.23;;;14.70;99.90;;;;;;5118438;28;20066;-57
2022/09/07 03:43:33;;;;;;;27.85;20.45;;;14.70;99.90;;;;;;5118410;28;20032;-57
2022/09/07 03:46:02;;;;;;;25.45;19.00;;;14.60;99.90;;;;;;5118437;28;20124;-57
2022/09/07 03:48:32;;;;;;;25.60;18.95;;;14.50;99.90;;;;;;5118723;28;20015;-57
2022/09/07 03:51:00;;;;;;;25.45;20.17;;;14.50;99.90;;;;;;5118179;28;20073;-57
2022/09/07 03:53:29;;;;;;;24.38;19.70;;;14.50;99.90;;;;;;5118524;28;20043;-57
2022/09/07 03:56:02;;;;;;;30.65;19.88;;;14.40;99.90;;;;;;5118496;28;20035;-57
2022/09/07 03:58:29;;;;;;;32.30;20.73;;;14.40;99.90;;;;;;5118562;28;20031;-57
2022/09/07 04:00:56;;;;;;;25.95;19.65;;;14.40;99.90;;;;;;5118122;28;20015;-57
2022/09/07 04:03:22;;;;;;;32.45;20.48;;;14.40;99.90;;;;;;5118065;28;20023;-57
2022/09/07 04:05:48;;;;;;;31.15;20.10;;;14.40;99.90;;;;;;5118014;28;20047;-57
2022/09/07 04:08:14;;;;;;;26.65;20.52;;;14.30;99.90;;;;;;5118237;28;20069;-57
2022/09/07 04:10:40;;;;;;;26.08;20.15;;;14.30;99.90;;;;;;5118102;28;20023;-56
2022/09/07 04:13:06;;;;;;;27.73;20.45;;;14.30;99.90;;;;;;5118126;28;20031;-56
2022/09/07 04:15:33;;;;;;;29.98;20.50;;;14.20;99.90;;;;;;5118062;28;20024;-57
2022/09/07 04:18:00;;;;;;;25.90;20.30;;;14.20;99.90;;;;;;5117772;28;20024;-57
2022/09/07 04:20:26;;;;;;;28.73;20.20;;;14.10;99.90;;;;;;5117960;28;20453;-57
2022/09/07 04:22:52;;;;;;;31.70;21.33;;;14.10;99.90;;;;;;5117807;28;20020;-57
2022/09/07 04:25:18;;;;;;;30.10;20.77;;;14.20;99.90;;;;;;5117599;28;20456;-56
2022/09/07 04:27:44;;;;;;;31.00;20.23;;;14.20;99.90;;;;;;5117772;27;20031;-57
2022/09/07 04:30:11;;;;;;;29.40;20.77;;;14.20;99.90;;;;;;5117745;28;20487;-56
2022/09/07 04:32:37;;;;;;;26.25;19.90;;;14.10;99.90;;;;;;5117720;28;20039;-57
2022/09/07 04:35:03;;;;;;;28.80;21.02;;;14.10;99.90;;;;;;5117463;28;20480;-57
2022/09/07 04:37:29;;;;;;;30.40;22.10;;;14.10;99.90;;;;;;5117669;28;20427;-57
2022/09/07 04:39:55;;;;;;;28.48;21.35;;;14.20;99.90;;;;;;5117115;28;20032;-57
2022/09/07 04:42:21;;;;;;;31.90;20.77;;;14.20;99.90;;;;;;5117562;28;20080;-57
2022/09/07 04:44:49;;;;;;;27.05;20.67;;;14.10;99.90;;;;;;5117065;28;20024;-57
2022/09/07 04:47:16;;;;;;;33.92;21.73;;;14.20;99.90;;;;;;5116724;28;20023;-57
2022/09/07 04:49:42;;;;;;;33.85;22.65;;;14.30;99.90;;;;;;5117309;28;20413;-57
2022/09/07 04:52:08;;;;;;;38.25;22.30;;;14.40;99.90;;;;;;5116161;28;20080;-57
2022/09/07 04:54:34;;;;;;;31.75;21.45;;;14.50;99.90;;;;;;5117169;28;20023;-57
2022/09/07 04:57:00;;;;;;;34.20;21.90;;;14.70;99.90;;;;;;5117109;28;20027;-57
2022/09/07 04:59:26;;;;;;;31.73;22.15;;;14.70;99.90;;;;;;5117256;28;20035;-57
2022/09/07 05:01:52;;;;;;;26.33;21.15;;;14.80;99.90;;;;;;5116802;28;20157;-57
2022/09/07 05:04:18;;;;;;;29.40;21.27;;;14.90;99.90;;;;;;5116993;28;20028;-57
2022/09/07 05:06:44;;;;;;;29.60;21.60;;;14.80;99.90;;;;;;5116966;28;20446;-57
2022/09/07 05:09:10;;;;;;;29.27;21.10;;;14.90;99.90;;;;;;5117108;28;20028;-57
2022/09/07 05:11:36;;;;;;;38.58;23.50;;;15.00;99.90;;;;;;5116909;28;20034;-57
2022/09/07 05:14:02;;;;;;;35.15;23.83;;;15.10;99.90;;;;;;5116526;28;20565;-56
2022/09/07 05:16:30;;;;;;;34.75;24.35;;;15.30;99.90;;;;;;5113570;28;20445;-57
2022/09/07 05:18:58;;;;;;;42.85;25.50;;;15.50;99.90;;;;;;5113578;28;20028;-57
2022/09/07 05:21:26;;;;;;;38.45;25.92;;;15.50;99.90;;;;;;5105907;27;20044;-57
2022/09/07 05:23:54;;;;;;;37.72;24.95;;;15.70;99.90;;;;;;5095966;28;20031;-57
2022/09/07 05:26:22;;;;;;;35.58;24.70;;;15.80;99.90;;;;;;5096164;28;20074;-57
2022/09/07 05:28:48;;;;;;;41.05;25.02;;;16.00;99.90;;;;;;5098436;28;20134;-57
2022/09/07 05:31:20;;;;;;;39.92;23.10;;;16.10;99.90;;;;;;5110642;28;20031;-57
2022/09/07 05:33:52;;;;;;;37.92;23.98;;;16.10;99.90;;;;;;5116280;28;20088;-57
2022/09/07 05:36:19;;;;;;;41.38;24.98;;;16.20;99.90;;;;;;5115440;28;20031;-57
2022/09/07 05:38:45;;;;;;;41.38;26.00;;;16.30;99.90;;;;;;5104253;27;20444;-57
2022/09/07 05:41:20;;;;;;;53.20;24.33;;;16.30;99.90;;;;;;5104997;28;20023;-57
2022/09/07 05:43:46;;;;;;;40.08;24.55;;;16.50;99.90;;;;;;5103202;28;20027;-57
2022/09/07 05:46:13;;;;;;;48.47;24.67;;;16.70;99.90;;;;;;5115587;28;20542;-57
2022/09/07 05:48:40;;;;;;;36.15;23.90;;;16.90;99.90;;;;;;5108485;28;20020;-57
2022/09/07 05:51:07;;;;;;;37.72;24.85;;;16.90;99.90;;;;;;5116055;28;20048;-57
2022/09/07 05:53:34;;;;;;;47.42;25.17;;;17.10;99.90;;;;;;5114239;28;20028;-57
2022/09/07 05:56:01;;;;;;;42.03;24.35;;;17.20;99.90;;;;;;5102201;27;20028;-57
2022/09/07 05:58:27;;;;;;;47.63;24.15;;;17.30;99.90;;;;;;5108259;28;20397;-57
2022/09/07 06:01:11;;;;;;;40.78;24.45;;;17.30;99.90;;;;;;5114773;28;20045;-57
2022/09/07 06:03:40;;;;;;;55.33;25.73;;;17.50;99.90;;;;;;5104356;28;20542;-57
2022/09/07 06:06:12;;;;;;;39.15;23.45;;;17.80;99.90;;;;;;5105254;28;20022;-57
2022/09/07 06:08:43;;;;;;;55.17;23.92;;;18.00;99.90;;;;;;5110193;28;20040;-57
2022/09/07 06:11:12;;;;;;;39.30;22.55;;;18.10;99.90;;;;;;5108966;28;20063;-57
2022/09/07 06:13:38;;;;;;;34.40;21.55;;;18.20;99.90;;;;;;5102540;28;20421;-57
2022/09/07 06:16:06;;;;;;;43.35;24.02;;;18.40;99.90;;;;;;5113775;28;20127;-57
2022/09/07 06:18:37;;;;;;;43.22;22.08;;;18.40;99.90;;;;;;5114491;28;20484;-57
2022/09/07 06:21:14;;;;;;;34.05;21.77;;;18.50;99.90;;;;;;5114733;28;20046;-57
2022/09/07 06:23:41;;;;;;;37.22;21.42;;;18.60;99.90;;;;;;5115267;28;20034;-57
2022/09/07 06:26:08;;;;;;;36.45;21.25;;;18.90;99.90;;;;;;5115247;28;20378;-57
2022/09/07 06:28:35;;;;;;;45.35;20.92;;;19.10;99.90;;;;;;5115503;28;20484;-57
2022/09/07 06:31:04;;;;;;;36.25;21.95;;;19.30;99.90;;;;;;5105831;28;20461;-57
2022/09/07 06:33:30;;;;;;;42.15;22.85;;;19.40;99.90;;;;;;5108123;28;20023;-57
2022/09/07 06:35:59;;;;;;;46.83;21.98;;;19.70;99.90;;;;;;5114855;28;20058;-57
2022/09/07 06:38:28;;;;;;;47.42;24.25;;;20.00;99.90;;;;;;5114366;28;20031;-57
2022/09/07 06:41:10;;;;;;;44.83;21.73;;;20.40;99.90;;;;;;5114415;28;20036;-57
2022/09/07 06:43:37;;;;;;;45.65;20.92;;;20.70;99.90;;;;;;5115052;28;20031;-57
2022/09/07 06:46:04;;;;;;;40.30;20.80;;;20.90;99.90;;;;;;5109480;28;20111;-57
2022/09/07 06:48:30;;;;;;;38.00;21.40;;;21.30;99.90;;;;;;5103516;28;20020;-57
2022/09/07 06:51:00;;;;;;;38.95;20.17;;;22.00;97.50;;;;;;5101606;28;20044;-57
2022/09/07 06:53:31;;;;;;;30.38;19.30;;;22.30;94.80;;;;;;5114632;28;20042;-57
2022/09/07 06:55:56;;;;;;;;;;;22.70;94.10;;;;;;5115248;28;20039;-57
2022/09/07 06:58:25;;;;;;;38.75;20.48;;;23.00;91.30;;;;;;5104506;28;20018;-57
2022/09/07 07:00:52;;;;;;;29.40;19.30;;;23.30;90.50;;;;;;5111213;28;20393;-57
2022/09/07 07:03:18;;;;;;;34.83;18.50;;;23.40;90.90;;;;;;5095567;28;20032;-57
2022/09/07 07:05:52;;;;;;;45.97;27.05;;;23.70;89.30;;;;;;5110416;28;20048;-57
2022/09/07 07:08:19;;;;;;;31.73;22.17;;;24.10;86.50;;;;;;5114932;28;20386;-58
2022/09/07 07:10:45;;;;;;;34.17;20.70;;;24.20;82.50;;;;;;5114572;28;20027;-58
2022/09/07 07:13:11;;;;;;;33.10;18.25;;;24.40;78.50;;;;;;5110771;28;20064;-58
2022/09/07 07:15:37;;;;;;;37.38;17.00;;;24.50;77.00;;;;;;5110107;28;20051;-58
2022/09/07 07:18:03;;;;;;;26.83;15.35;;;25.00;75.60;;;;;;5108307;28;20074;-58
2022/09/07 07:20:29;;;;;;;26.23;16.63;;;25.20;73.70;;;;;;5113548;28;20083;-58
2022/09/07 07:22:55;;;;;;;30.23;17.73;;;24.90;72.90;;;;;;5113636;28;20380;-58
2022/09/07 07:25:21;;;;;;;25.63;17.23;;;25.40;73.30;;;;;;5113854;28;20083;-58
2022/09/07 07:27:48;;;;;;;29.23;15.43;;;25.80;70.60;;;;;;5113651;28;20054;-58
2022/09/07 07:30:15;;;;;;;28.58;14.95;;;26.00;70.50;;;;;;5103719;28;20024;-59
2022/09/07 07:32:43;;;;;;;32.83;16.15;;;26.20;67.80;;;;;;5114213;28;20016;-59
2022/09/07 07:35:10;;;;;;;27.92;14.48;;;26.60;69.40;;;;;;5109197;28;20161;-57
2022/09/07 07:37:36;;;;;;;31.55;16.10;;;26.60;64.70;;;;;;5104826;28;20016;-57
2022/09/07 07:40:04;;;;;;;25.95;14.75;;;26.50;64.90;;;;;;5115258;28;20040;-57
2022/09/07 07:42:31;;;;;;;25.15;13.50;;;26.80;64.80;;;;;;5113347;28;20564;-57
2022/09/07 07:44:57;;;;;;;30.55;14.25;;;26.90;64.10;;;;;;5114856;28;20035;-57
2022/09/07 07:47:23;;;;;;;28.30;13.68;;;27.30;63.60;;;;;;5114386;28;20081;-57
2022/09/07 07:49:49;;;;;;;27.60;13.13;;;27.80;62.80;;;;;;5114368;28;20047;-57
2022/09/07 07:52:15;;;;;;;28.13;13.40;;;27.60;62.60;;;;;;5111796;28;20403;-57
2022/09/07 07:54:42;;;;;;;26.58;13.25;;;27.10;62.80;;;;;;5103118;28;20115;-57
2022/09/07 07:57:08;;;;;;;23.00;12.65;;;27.40;62.10;;;;;;5099961;28;20036;-57
2022/09/07 07:59:34;;;;;;;34.95;13.88;;;27.30;61.70;;;;;;5104301;28;20395;-57
2022/09/07 08:02:03;;;;;;;23.02;12.15;;;27.70;62.20;;;;;;5107275;28;20027;-57
2022/09/07 08:04:31;;;;;;;31.77;16.52;;;28.30;61.10;;;;;;5107471;28;20088;-57
2022/09/07 08:06:57;;;;;;;33.28;13.07;;;28.60;59.30;;;;;;5113920;28;20063;-57
2022/09/07 08:09:23;;;;;;;18.65;12.20;;;28.90;60.60;;;;;;5105428;28;20047;-57
2022/09/07 08:11:48;;;;;;;25.85;12.55;;;29.00;59.60;;;;;;5113671;28;20427;-57
2022/09/07 08:14:15;;;;;;;18.67;10.77;;;28.70;57.00;;;;;;5113816;28;20027;-57
2022/09/07 08:16:44;;;;;;;17.65;10.80;;;28.60;57.20;;;;;;5108826;28;20055;-57
2022/09/07 08:19:10;;;;;;;20.95;11.90;;;28.90;56.40;;;;;;5111448;28;20015;-57
2022/09/07 08:21:36;;;;;;;26.40;13.00;;;29.60;56.60;;;;;;5112438;28;20028;-57
2022/09/07 08:24:03;;;;;;;17.65;11.68;;;29.70;54.20;;;;;;5117516;28;20030;-57
2022/09/07 08:26:29;;;;;;;29.35;12.50;;;29.90;55.80;;;;;;5117246;27;20026;-57
2022/09/07 08:28:55;;;;;;;16.75;11.95;;;30.10;53.90;;;;;;5118576;28;20068;-57
2022/09/07 08:31:21;;;;;;;19.67;12.45;;;30.30;52.20;;;;;;5115006;28;20047;-57
2022/09/07 08:33:47;;;;;;;21.30;10.80;;;30.30;54.10;;;;;;5118169;28;20031;-57
2022/09/07 08:36:18;;;;;;;28.45;12.85;;;30.70;53.50;;;;;;5118756;27;20023;-57
2022/09/07 08:38:45;;;;;;;25.65;11.02;;;30.80;53.20;;;;;;5118166;27;20589;-57
2022/09/07 08:41:53;;;;;;;23.88;11.38;;;31.20;53.50;;;;;;5115187;27;20016;-57
2022/09/07 08:44:28;;;;;;;29.88;12.18;;;30.80;49.70;;;;;;5102457;28;20046;-57
2022/09/07 08:47:15;;;;;;;21.83;11.95;;;30.00;50.50;;;;;;5117986;28;20072;-57
2022/09/07 08:50:05;;;;;;;21.33;10.95;;;30.20;55.10;;;;;;5118246;28;20043;-57
2022/09/07 08:52:40;;;;;;;;;;;31.20;55.30;;;;;;5118547;28;20390;-57
2022/09/07 08:55:15;;;;;;;23.85;11.23;;;31.60;50.00;;;;;;5117505;28;19908;-57
2022/09/07 08:57:49;;;;;;;16.77;10.82;;;32.00;49.60;;;;;;5116968;28;20484;-57
2022/09/07 09:00:17;;;;;;;18.23;10.68;;;32.00;48.40;;;;;;5117315;28;20052;-57
2022/09/07 09:02:46;;;;;;;16.00;9.75;;;31.30;51.30;;;;;;5111431;28;20024;-57
2022/09/07 09:05:50;;;;;;;14.25;9.18;;;31.60;48.60;;;;;;5110245;28;20122;-57
2022/09/07 09:08:26;;;;;;;17.42;11.55;;;31.60;49.10;;;;;;5109816;28;20032;-57
2022/09/07 09:11:01;;;;;;;14.80;9.85;;;32.40;48.80;;;;;;5112985;28;20589;-57
2022/09/07 09:13:55;;;;;;;19.73;11.90;;;32.10;47.00;;;;;;5104118;28;20035;-57
2022/09/07 09:16:42;;;;;;;17.15;11.20;;;32.70;47.90;;;;;;5100584;28;20078;-57
2022/09/07 09:19:38;;;;;;;17.67;10.90;;;32.90;46.40;;;;;;5116356;28;20544;-57
2022/09/07 09:22:12;;;;;;;12.73;9.52;;;33.30;45.50;;;;;;5112484;28;20149;-57
2022/09/07 09:24:44;;;;;;;16.20;9.25;;;33.40;45.40;;;;;;5115657;28;20031;-57
2022/09/07 09:27:10;;;;;;;14.13;9.88;;;33.00;46.00;;;;;;5114452;28;20035;-57
2022/09/07 09:29:36;;;;;;;12.27;9.60;;;33.10;47.30;;;;;;5116870;28;20503;-57
2022/09/07 09:32:32;;;;;;;14.15;9.90;;;33.30;44.80;;;;;;5115367;27;20059;-57
2022/09/07 09:35:13;;;;;;;14.02;10.63;;;33.10;44.70;;;;;;5112203;28;20019;-57
2022/09/07 09:37:40;;;;;;;19.63;11.80;;;33.20;44.30;;;;;;5111022;28;20032;-57
2022/09/07 09:40:35;;;;;;;18.55;10.30;;;33.20;44.10;;;;;;5106458;28;20059;-57
2022/09/07 09:43:23;;;;;;;15.80;10.60;;;33.40;45.50;;;;;;5113688;28;20385;-57
2022/09/07 09:45:55;;;;;;;21.08;11.27;;;33.50;43.90;;;;;;5095542;28;20024;-57
2022/09/07 09:48:25;;;;;;;15.20;10.55;;;33.20;43.40;;;;;;5106546;28;20024;-57
2022/09/07 09:50:55;;;;;;;17.83;10.98;;;33.40;44.10;;;;;;5116282;28;20069;-57
2022/09/07 09:53:34;;;;;;;19.85;12.40;;;33.60;44.30;;;;;;5116421;28;20019;-57
2022/09/07 09:56:02;;;;;;;20.73;11.83;;;33.70;43.50;;;;;;5115721;28;20153;-57
2022/09/07 09:58:37;;;;;;;17.20;11.10;;;33.30;44.80;;;;;;5109856;28;20280;-57
2022/09/07 10:01:19;;;;;;;22.27;13.02;;;33.40;44.30;;;;;;5111674;28;20022;-57
2022/09/07 10:03:45;;;;;;;21.20;13.60;;;33.80;44.30;;;;;;5102261;28;20289;-57
2022/09/07 10:06:15;;;;;;;20.35;13.05;;;34.00;42.40;;;;;;5095569;28;20035;-57
2022/09/07 10:08:52;;;;;;;;;;;34.00;44.70;;;;;;5111855;28;20550;-57
2022/09/07 10:11:18;;;;;;;17.88;12.07;;;33.90;43.80;;;;;;5114798;28;19911;-57
2022/09/07 10:13:55;;;;;;;18.23;11.35;;;34.60;42.20;;;;;;5115105;28;20043;-57
2022/09/07 10:16:37;;;;;;;23.40;13.73;;;34.80;41.80;;;;;;5109071;28;20039;-57
2022/09/07 10:19:03;;;;;;;21.23;12.68;;;34.50;41.70;;;;;;5107812;28;20032;-57
2022/09/07 10:21:31;;;;;;;19.27;12.50;;;34.20;42.40;;;;;;5103749;28;20024;-59
2022/09/07 10:24:14;;;;;;;18.75;11.38;;;34.30;42.70;;;;;;5103827;28;20231;-57
2022/09/07 10:26:46;;;;;;;18.33;11.88;;;34.00;40.10;;;;;;5112553;28;20098;-57
2022/09/07 10:29:13;;;;;;;17.83;12.52;;;34.00;41.60;;;;;;5113774;28;20073;-57
2022/09/07 10:32:11;;;;;;;17.77;11.65;;;34.20;42.40;;;;;;5110265;28;20032;-59
2022/09/07 10:34:46;;;;;;;21.42;11.77;;;33.90;41.30;;;;;;5096218;28;20035;-59
2022/09/07 10:37:51;;;;;;;17.98;11.98;;;33.90;43.20;;;;;;5106622;28;20229;-59
2022/09/07 10:40:22;;;;;;;18.27;10.73;;;33.80;41.40;;;;;;5106998;27;20027;-59
2022/09/07 10:43:14;;;;;;;17.98;9.13;;;33.70;42.40;;;;;;5112613;28;20042;-59
2022/09/07 10:45:58;;;;;;;16.95;9.63;;;33.90;41.80;;;;;;5098429;28;20036;-58
2022/09/07 10:48:43;;;;;;;18.23;10.00;;;34.10;40.30;;;;;;5113721;27;20015;-59
2022/09/07 10:51:49;;;;;;;19.73;9.63;;;34.70;41.50;;;;;;5114873;28;20050;-59
2022/09/07 10:54:47;;;;;;;11.77;8.73;;;34.70;39.80;;;;;;5098176;28;20027;-59
2022/09/07 10:57:28;;;;;;;15.77;9.35;;;35.00;39.20;;;;;;5098988;28;20040;-59
2022/09/07 10:59:54;;;;;;;12.93;9.32;;;34.90;40.30;;;;;;5102292;28;20385;-59
2022/09/07 11:02:31;;;;;;;23.88;12.13;;;34.90;41.10;;;;;;5106042;28;20035;-59
2022/09/07 11:05:22;;;;;;;16.60;9.77;;;34.90;40.10;;;;;;5113337;28;20035;-59
2022/09/07 11:08:26;;;;;;;19.60;11.82;;;35.10;38.40;;;;;;5115715;28;20027;-59
2022/09/07 11:11:10;;;;;;;14.00;10.70;;;34.80;40.10;;;;;;5041046;28;20069;-59
2022/09/07 11:13:40;;;;;;;18.33;10.23;;;35.00;40.60;;;;;;5095383;28;20024;-59
2022/09/07 11:16:13;;;;;;;18.70;10.43;;;35.10;39.50;;;;;;5106760;28;20110;-59
2022/09/07 11:18:56;;;;;;;13.88;9.68;;;35.20;41.00;;;;;;5102306;28;20020;-59
2022/09/07 11:21:29;;;;;;;11.50;7.32;;;34.70;40.60;;;;;;5106454;28;20098;-59
2022/09/07 11:24:02;;;;;;;10.93;6.70;;;34.60;38.20;;;;;;5114615;28;20546;-59
2022/09/07 11:26:40;;;;;;;10.25;7.60;;;34.40;40.50;;;;;;5102054;28;20027;-59
2022/09/07 11:29:20;;;;;;;13.48;8.88;;;34.70;40.50;;;;;;5094215;28;20462;-59
2022/09/07 11:32:02;;;;;;;17.05;10.57;;;35.20;40.70;;;;;;5108767;28;20110;-59
2022/09/07 11:34:38;;;;;;;21.10;9.45;;;35.10;39.40;;;;;;5114717;28;20042;-59
2022/09/07 11:37:18;;;;;;;12.02;8.07;;;35.30;39.30;;;;;;5109480;28;20046;-59
2022/09/07 11:39:46;;;;;;;;;;;35.40;38.60;;;;;;5106048;28;20031;-59
2022/09/07 11:42:50;;;;;;;15.13;9.00;;;35.40;39.10;;;;;;5100820;28;19923;-59
2022/09/07 11:45:27;;;;;;;13.45;7.10;;;35.10;37.60;;;;;;5079211;28;20055;-59
2022/09/07 11:48:11;;;;;;;14.88;8.60;;;35.20;37.20;;;;;;5105109;28;20024;-59
2022/09/07 11:50:46;;;;;;;20.40;10.70;;;35.10;38.20;;;;;;5093860;28;20048;-59
2022/09/07 11:53:18;;;;;;;18.58;11.23;;;35.30;38.00;;;;;;5101079;28;20028;-59
2022/09/07 11:55:54;;;;;;;20.88;10.45;;;35.30;38.20;;;;;;5109657;28;20488;-59
2022/09/07 11:58:38;;;;;;;17.42;10.23;;;35.20;37.90;;;;;;5110120;28;20028;-59
2022/09/07 12:01:28;;;;;;;17.23;10.93;;;35.50;36.60;;;;;;5118343;28;20032;-59
2022/09/07 12:04:23;;;;;;;22.83;12.88;;;35.20;38.60;;;;;;5111877;28;20533;-59
2022/09/07 12:07:01;;;;;;;22.98;11.85;;;35.70;37.80;;;;;;5112391;28;20032;-59
2022/09/07 12:09:57;;;;;;;16.33;10.40;;;35.60;37.90;;;;;;5104810;28;20024;-59
2022/09/07 12:13:01;;;;;;;21.30;11.20;;;35.10;39.00;;;;;;5104422;28;20030;-59
2022/09/07 12:15:43;;;;;;;23.50;9.88;;;35.00;37.40;;;;;;5074883;28;20028;-59
2022/09/07 12:18:12;;;;;;;13.43;9.27;;;35.20;38.90;;;;;;5073895;28;20039;-59
2022/09/07 12:20:43;;;;;;;20.05;10.98;;;35.10;37.10;;;;;;5072935;28;20078;-59
2022/09/07 12:23:15;;;;;;;21.88;11.00;;;35.20;37.40;;;;;;5074611;28;20510;-58
2022/09/07 12:25:46;;;;;;;14.52;10.07;;;35.30;37.40;;;;;;5063307;28;20066;-59
2022/09/07 12:28:24;;;;;;;19.67;10.85;;;34.90;38.60;;;;;;5074631;28;20035;-59
2022/09/07 12:30:58;;;;;;;18.02;11.05;;;35.20;39.80;;;;;;5074943;28;20078;-59
2022/09/07 12:33:30;;;;;;;19.17;11.25;;;34.90;38.80;;;;;;5074589;28;20123;-59
2022/09/07 12:35:57;;;;;;;18.23;10.18;;;35.20;37.70;;;;;;5074710;28;20052;-59
2022/09/07 12:38:29;;;;;;;16.27;9.95;;;34.80;38.20;;;;;;5075021;28;20102;-59
2022/09/07 12:41:22;;;;;;;13.80;8.82;;;34.40;38.20;;;;;;5074333;28;20040;-59
2022/09/07 12:43:47;;;;;;;15.85;9.85;;;34.20;38.40;;;;;;5073754;28;20035;-59
2022/09/07 12:46:42;;;;;;;18.13;8.43;;;34.70;40.90;;;;;;5095691;28;20032;-59
2022/09/07 12:49:17;;;;;;;10.73;7.57;;;35.30;38.20;;;;;;5117234;28;20067;-60
2022/09/07 12:51:57;;;;;;;11.05;6.40;;;35.10;41.30;;;;;;5116979;28;20081;-59
2022/09/07 12:54:45;;;;;;;32.00;10.07;;;35.00;37.10;;;;;;5117384;28;20019;-59
2022/09/07 12:57:32;;;;;;;12.10;7.88;;;35.20;37.30;;;;;;5117382;28;20102;-59
2022/09/07 13:00:31;;;;;;;11.32;7.40;;;35.30;38.10;;;;;;5099414;28;20035;-59
2022/09/07 13:03:14;;;;;;;12.77;7.70;;;35.10;37.80;;;;;;5077441;28;20370;-59